createdAt,value
2023-05-06T00:01:49.563Z,3.50
2023-05-06T00:04:16.590Z,3.20
2023-05-06T00:06:44.032Z,3.20
2023-05-06T00:09:11.138Z,2.80
2023-05-06T00:11:38.141Z,2.80
2023-05-06T00:14:05.129Z,3.00
2023-05-06T00:16:32.251Z,3.10
2023-05-06T00:18:59.207Z,3.30
2023-05-06T00:21:27.257Z,3.10
2023-05-06T00:23:54.235Z,3.20
2023-05-06T00:26:21.205Z,3.00
2023-05-06T00:28:48.163Z,3.20
2023-05-06T00:31:15.235Z,2.80
2023-05-06T00:33:42.232Z,3.00
2023-05-06T00:36:09.484Z,2.70
2023-05-06T00:38:36.500Z,3.70
2023-05-06T00:41:03.578Z,3.10
2023-05-06T00:43:30.531Z,3.00
2023-05-06T00:45:57.546Z,3.30
2023-05-06T00:48:24.570Z,2.80
2023-05-06T00:50:51.605Z,2.90
2023-05-06T00:53:19.931Z,3.10
2023-05-06T00:55:46.893Z,2.90
2023-05-06T00:58:14.078Z,2.80
2023-05-06T01:00:42.522Z,3.50
2023-05-06T01:03:09.704Z,3.30
2023-05-06T01:05:44.158Z,3.50
2023-05-06T01:08:19.814Z,3.10
2023-05-06T01:10:52.409Z,2.70
2023-05-06T01:13:39.259Z,3.00
2023-05-06T01:16:06.377Z,2.60
2023-05-06T01:18:33.463Z,3.40
2023-05-06T01:21:00.495Z,3.10
2023-05-06T01:23:27.563Z,3.00
2023-05-06T01:25:54.535Z,2.50
2023-05-06T01:28:22.015Z,3.10
2023-05-06T01:30:58.256Z,3.10
2023-05-06T01:33:53.212Z,2.90
2023-05-06T01:36:38.609Z,3.00
2023-05-06T01:39:27.232Z,2.80
2023-05-06T01:41:54.952Z,2.80
2023-05-06T01:44:22.293Z,2.90
2023-05-06T01:46:50.034Z,2.70
2023-05-06T01:49:18.128Z,2.80
2023-05-06T01:51:48.672Z,2.90
2023-05-06T01:54:15.688Z,2.90
2023-05-06T01:56:42.694Z,2.50
2023-05-06T01:59:09.911Z,2.80
2023-05-06T02:01:36.902Z,2.70
2023-05-06T02:04:04.345Z,2.90
2023-05-06T02:06:31.865Z,2.90
2023-05-06T02:08:59.166Z,2.50
2023-05-06T02:11:26.808Z,2.50
2023-05-06T02:13:59.321Z,2.90
2023-05-06T02:16:29.560Z,2.40
2023-05-06T02:18:56.615Z,3.30
2023-05-06T02:21:23.730Z,2.50
2023-05-06T02:23:50.908Z,2.70
2023-05-06T02:26:17.909Z,2.80
2023-05-06T02:28:44.879Z,2.10
2023-05-06T02:31:16.083Z,2.70
2023-05-06T02:33:43.733Z,2.70
2023-05-06T02:36:11.438Z,2.90
2023-05-06T02:38:38.658Z,2.30
2023-05-06T02:41:05.646Z,2.50
2023-05-06T02:43:32.681Z,2.60
2023-05-06T02:45:59.683Z,2.40
2023-05-06T02:48:26.783Z,2.40
2023-05-06T02:50:53.745Z,2.50
2023-05-06T02:53:20.900Z,2.60
2023-05-06T02:55:47.856Z,2.60
2023-05-06T02:58:14.842Z,2.90
2023-05-06T03:00:41.888Z,2.60
2023-05-06T03:03:09.274Z,2.80
2023-05-06T03:05:36.284Z,2.60
2023-05-06T03:08:03.297Z,2.70
2023-05-06T03:10:30.890Z,2.80
2023-05-06T03:12:58.270Z,2.60
2023-05-06T03:15:25.485Z,2.40
2023-05-06T03:17:53.871Z,2.30
2023-05-06T03:20:21.581Z,2.10
2023-05-06T03:22:51.813Z,2.20
2023-05-06T03:25:19.088Z,2.10
2023-05-06T03:27:46.394Z,2.40
2023-05-06T03:30:17.700Z,2.40
2023-05-06T03:32:45.026Z,2.50
2023-05-06T03:35:14.324Z,2.30
2023-05-06T03:37:42.593Z,2.70
2023-05-06T03:40:09.901Z,2.10
2023-05-06T03:42:36.988Z,2.10
2023-05-06T03:45:06.635Z,2.60
2023-05-06T03:47:34.155Z,2.20
2023-05-06T03:50:01.736Z,2.30
2023-05-06T03:52:29.884Z,2.20
2023-05-06T03:54:57.037Z,2.20
2023-05-06T03:57:24.432Z,2.50
2023-05-06T03:59:51.603Z,2.40
2023-05-06T04:02:18.812Z,2.30
2023-05-06T04:04:45.863Z,2.50
2023-05-06T04:07:12.864Z,2.60
2023-05-06T04:09:39.905Z,2.60
2023-05-06T04:12:07.860Z,2.20
2023-05-06T04:14:35.190Z,2.10
2023-05-06T04:17:02.713Z,2.20
2023-05-06T04:19:30.294Z,2.20
2023-05-06T04:21:58.576Z,1.90
2023-05-06T04:24:28.105Z,2.00
2023-05-06T04:26:55.922Z,2.30
2023-05-06T04:29:23.564Z,1.70
2023-05-06T04:31:57.869Z,1.90
2023-05-06T04:34:27.944Z,2.30
2023-05-06T04:36:55.518Z,2.30
2023-05-06T04:39:48.723Z,2.30
2023-05-06T04:42:18.917Z,2.70
2023-05-06T04:44:52.948Z,2.10
2023-05-06T04:47:22.320Z,2.30
2023-05-06T04:49:50.534Z,2.20
2023-05-06T04:52:18.337Z,2.20
2023-05-06T04:54:45.775Z,2.00
2023-05-06T04:57:13.101Z,2.50
2023-05-06T04:59:41.856Z,3.00
2023-05-06T05:02:08.881Z,2.10
2023-05-06T05:04:36.716Z,2.60
2023-05-06T05:07:03.680Z,2.10
2023-05-06T05:09:31.289Z,2.20
2023-05-06T05:11:58.554Z,2.30
2023-05-06T05:14:26.180Z,2.70
2023-05-06T05:16:53.343Z,2.50
2023-05-06T05:19:21.445Z,2.20
2023-05-06T05:21:49.280Z,2.20
2023-05-06T05:24:16.428Z,2.20
2023-05-06T05:26:43.630Z,2.00
2023-05-06T05:29:11.354Z,2.40
2023-05-06T05:31:38.612Z,2.10
2023-05-06T05:34:06.838Z,2.10
2023-05-06T05:36:33.797Z,2.00
2023-05-06T05:39:02.880Z,1.90
2023-05-06T05:41:30.786Z,2.30
2023-05-06T05:43:57.756Z,1.80
2023-05-06T05:46:25.730Z,2.20
2023-05-06T05:48:52.758Z,2.20
2023-05-06T05:51:20.879Z,2.10
2023-05-06T05:53:49.156Z,1.80
2023-05-06T05:56:16.896Z,2.20
2023-05-06T05:58:45.107Z,1.90
2023-05-06T06:01:12.112Z,1.90
2023-05-06T06:03:39.192Z,2.50
2023-05-06T06:06:06.816Z,2.30
2023-05-06T06:08:34.124Z,1.80
2023-05-06T06:11:04.111Z,2.10
2023-05-06T06:13:35.393Z,2.20
2023-05-06T06:16:02.395Z,2.40
2023-05-06T06:18:29.523Z,2.20
2023-05-06T06:20:57.237Z,2.20
2023-05-06T06:23:24.676Z,2.10
2023-05-06T06:25:51.745Z,2.10
2023-05-06T06:28:18.777Z,2.20
2023-05-06T06:30:46.064Z,2.60
2023-05-06T06:33:13.052Z,2.40
2023-05-06T06:35:40.426Z,2.50
2023-05-06T06:38:07.483Z,2.20
2023-05-06T06:40:34.489Z,2.60
2023-05-06T06:43:01.926Z,2.40
2023-05-06T06:45:48.931Z,1.90
2023-05-06T06:48:16.748Z,2.40
2023-05-06T06:50:43.763Z,2.60
2023-05-06T06:53:11.225Z,2.20
2023-05-06T06:55:38.240Z,2.50
2023-05-06T06:58:05.499Z,2.10
2023-05-06T07:00:32.519Z,2.20
2023-05-06T07:02:59.539Z,2.00
2023-05-06T07:05:29.450Z,1.90
2023-05-06T07:07:56.632Z,1.80
2023-05-06T07:10:23.609Z,1.60
2023-05-06T07:12:50.591Z,1.70
2023-05-06T07:15:17.571Z,1.60
2023-05-06T07:17:45.127Z,2.30
2023-05-06T07:20:12.725Z,1.60
2023-05-06T07:22:41.438Z,1.70
2023-05-06T07:25:09.044Z,2.20
2023-05-06T07:27:36.313Z,1.90
2023-05-06T07:30:03.607Z,1.60
2023-05-06T07:32:30.999Z,1.90
2023-05-06T07:34:58.031Z,2.00
2023-05-06T07:37:25.055Z,1.90
2023-05-06T07:39:52.032Z,2.20
2023-05-06T07:42:19.056Z,2.10
2023-05-06T07:44:45.994Z,2.50
2023-05-06T07:47:27.224Z,1.70
2023-05-06T07:49:54.859Z,1.90
2023-05-06T07:52:22.889Z,2.00
2023-05-06T07:54:50.005Z,1.80
2023-05-06T07:57:17.191Z,1.80
2023-05-06T07:59:46.937Z,1.70
2023-05-06T08:02:14.249Z,1.70
2023-05-06T08:04:41.269Z,1.80
2023-05-06T08:07:08.251Z,1.60
2023-05-06T08:09:35.211Z,1.60
2023-05-06T08:12:02.680Z,1.90
2023-05-06T08:14:29.804Z,2.00
2023-05-06T08:16:56.767Z,1.80
2023-05-06T08:19:23.787Z,1.70
2023-05-06T08:21:51.665Z,1.70
2023-05-06T08:24:18.782Z,1.70
2023-05-06T08:26:45.930Z,1.70
2023-05-06T08:29:13.636Z,1.80
2023-05-06T08:31:40.677Z,1.40
2023-05-06T08:34:07.790Z,1.40
2023-05-06T08:36:34.746Z,1.30
2023-05-06T08:39:01.735Z,1.30
2023-05-06T08:41:28.869Z,1.40
2023-05-06T08:43:55.830Z,1.10
2023-05-06T08:46:23.153Z,1.20
2023-05-06T08:48:50.168Z,1.50
2023-05-06T08:51:17.213Z,0.80
2023-05-06T08:53:47.920Z,1.10
2023-05-06T08:56:15.142Z,1.30
2023-05-06T08:58:46.922Z,1.40
2023-05-06T09:01:14.178Z,1.10
2023-05-06T09:03:41.278Z,1.20
2023-05-06T09:06:08.392Z,1.20
2023-05-06T09:08:36.363Z,1.50
2023-05-06T09:11:03.443Z,1.20
2023-05-06T09:13:30.993Z,1.20
2023-05-06T09:15:57.952Z,1.30
2023-05-06T09:18:24.918Z,1.20
2023-05-06T09:20:51.909Z,1.10
2023-05-06T09:23:19.139Z,1.10
2023-05-06T09:25:47.187Z,1.30
2023-05-06T09:28:14.488Z,1.10
2023-05-06T09:30:42.342Z,1.00
2023-05-06T09:33:10.096Z,1.10
2023-05-06T09:35:38.452Z,1.00
2023-05-06T09:38:07.143Z,0.90
2023-05-06T09:40:37.725Z,1.00
2023-05-06T09:43:05.445Z,1.30
2023-05-06T09:45:33.294Z,1.00
2023-05-06T09:48:00.723Z,0.90
2023-05-06T09:50:27.798Z,0.90
2023-05-06T09:52:55.798Z,1.00
2023-05-06T09:55:23.335Z,1.00
2023-05-06T09:57:50.531Z,1.10
2023-05-06T10:00:17.859Z,1.00
2023-05-06T10:02:45.815Z,1.10
2023-05-06T10:05:13.756Z,0.90
2023-05-06T10:07:42.438Z,0.80
2023-05-06T10:10:11.240Z,1.00
2023-05-06T10:12:38.343Z,1.30
2023-05-06T10:15:06.194Z,1.00
2023-05-06T10:17:33.213Z,0.90
2023-05-06T10:20:00.955Z,0.60
2023-05-06T10:22:37.060Z,1.20
2023-05-06T10:25:06.484Z,0.70
2023-05-06T10:27:36.001Z,1.10
2023-05-06T10:30:03.190Z,1.10
2023-05-06T10:32:32.327Z,1.20
2023-05-06T10:35:06.401Z,1.10
2023-05-06T10:37:33.371Z,1.10
2023-05-06T10:40:00.362Z,1.00
2023-05-06T10:42:28.580Z,1.00
2023-05-06T10:44:59.665Z,1.60
2023-05-06T10:47:27.082Z,1.10
2023-05-06T10:50:22.069Z,1.30
2023-05-06T10:52:51.916Z,1.50
2023-05-06T10:55:29.322Z,1.10
2023-05-06T10:58:04.000Z,1.30
2023-05-06T11:00:31.974Z,1.00
2023-05-06T11:03:01.998Z,1.10
2023-05-06T11:05:29.194Z,0.80
2023-05-06T11:08:21.561Z,1.00
2023-05-06T11:10:48.496Z,1.00
2023-05-06T11:13:19.871Z,0.80
2023-05-06T11:15:47.502Z,1.20
2023-05-06T11:18:27.775Z,1.10
2023-05-06T11:21:02.734Z,1.10
2023-05-06T11:23:42.553Z,1.40
2023-05-06T11:26:10.231Z,1.00
2023-05-06T11:28:37.425Z,1.20
2023-05-06T11:31:04.680Z,1.20
2023-05-06T11:33:36.548Z,1.00
2023-05-06T11:36:04.212Z,1.50
2023-05-06T11:38:48.109Z,1.00
2023-05-06T11:41:15.670Z,1.00
2023-05-06T11:43:46.784Z,1.00
2023-05-06T11:46:13.701Z,1.20
2023-05-06T11:48:40.690Z,0.90
2023-05-06T11:51:08.365Z,1.20
2023-05-06T11:53:35.410Z,1.20
2023-05-06T11:56:02.632Z,1.30
2023-05-06T11:58:29.644Z,1.50
2023-05-06T12:01:00.661Z,1.40
2023-05-06T12:03:28.853Z,1.30
2023-05-06T12:05:56.296Z,1.30
2023-05-06T12:08:27.807Z,1.40
2023-05-06T12:10:56.558Z,1.50
2023-05-06T12:13:23.585Z,1.00
2023-05-06T12:15:50.681Z,1.30
2023-05-06T12:18:17.680Z,1.40
2023-05-06T12:20:44.713Z,1.40
2023-05-06T12:23:12.640Z,1.30
2023-05-06T12:25:40.067Z,1.50
2023-05-06T12:28:26.972Z,1.40
2023-05-06T12:30:54.010Z,1.30
2023-05-06T12:33:21.520Z,1.20
2023-05-06T12:35:49.110Z,1.10
2023-05-06T12:38:16.940Z,0.90
2023-05-06T12:40:45.344Z,1.00
2023-05-06T12:43:12.562Z,1.00
2023-05-06T12:45:40.203Z,0.80
2023-05-06T12:48:07.496Z,0.80
2023-05-06T12:50:39.658Z,1.00
2023-05-06T12:53:10.353Z,0.90
2023-05-06T12:55:38.391Z,1.10
2023-05-06T12:58:15.876Z,0.60
2023-05-06T13:00:42.959Z,0.90
2023-05-06T13:03:11.667Z,0.80
2023-05-06T13:05:38.805Z,0.70
2023-05-06T13:08:05.933Z,0.70
2023-05-06T13:10:32.972Z,1.10
2023-05-06T13:12:59.943Z,0.90
2023-05-06T13:15:27.198Z,1.00
2023-05-06T13:17:54.360Z,1.10
2023-05-06T13:20:21.773Z,0.80
2023-05-06T13:22:54.722Z,0.90
2023-05-06T13:25:22.393Z,0.80
2023-05-06T13:27:49.573Z,1.00
2023-05-06T13:30:17.190Z,1.00
2023-05-06T13:32:44.178Z,0.90
2023-05-06T13:35:11.570Z,0.70
2023-05-06T13:37:38.696Z,0.80
2023-05-06T13:40:06.605Z,1.00
2023-05-06T13:42:33.704Z,0.90
2023-05-06T13:45:00.748Z,0.90
2023-05-06T13:47:27.706Z,0.90
2023-05-06T13:49:54.640Z,0.80
2023-05-06T13:52:21.811Z,0.90
2023-05-06T13:54:49.702Z,1.10
2023-05-06T13:57:17.497Z,1.00
2023-05-06T13:59:44.450Z,0.90
2023-05-06T14:02:11.961Z,0.80
2023-05-06T14:04:39.041Z,0.60
2023-05-06T14:07:06.183Z,0.80
2023-05-06T14:09:33.328Z,0.80
2023-05-06T14:12:00.657Z,1.20
2023-05-06T14:14:27.682Z,0.70
2023-05-06T14:16:55.782Z,0.80
2023-05-06T14:19:23.542Z,0.80
2023-05-06T14:21:51.895Z,1.00
2023-05-06T14:24:18.856Z,0.70
2023-05-06T14:26:46.293Z,0.80
2023-05-06T14:29:13.304Z,0.70
2023-05-06T14:31:40.428Z,0.90
2023-05-06T14:34:07.551Z,0.80
2023-05-06T14:36:34.566Z,0.90
2023-05-06T14:39:01.590Z,0.80
2023-05-06T14:41:28.690Z,0.80
2023-05-06T14:43:55.796Z,0.90
2023-05-06T14:46:23.176Z,0.70
2023-05-06T14:48:50.791Z,0.80
2023-05-06T14:51:17.752Z,0.70
2023-05-06T14:53:45.470Z,1.00
2023-05-06T14:56:12.532Z,0.80
2023-05-06T14:58:39.521Z,0.60
2023-05-06T15:01:07.179Z,0.60
2023-05-06T15:03:34.244Z,0.80
2023-05-06T15:06:01.344Z,1.10
2023-05-06T15:08:28.338Z,0.80
2023-05-06T15:10:55.533Z,1.50
2023-05-06T15:13:22.630Z,1.00
2023-05-06T15:15:49.729Z,0.90
2023-05-06T15:18:16.690Z,0.80
2023-05-06T15:20:43.643Z,0.80
2023-05-06T15:23:10.815Z,1.20
2023-05-06T15:25:38.247Z,0.80
2023-05-06T15:28:05.742Z,1.20
2023-05-06T15:30:32.725Z,1.10
2023-05-06T15:33:01.475Z,1.20
2023-05-06T15:35:28.650Z,1.10
2023-05-06T15:37:58.807Z,1.10
2023-05-06T15:40:26.329Z,0.90
2023-05-06T15:42:53.280Z,0.80
2023-05-06T15:45:21.137Z,1.00
2023-05-06T15:47:48.467Z,1.20
2023-05-06T15:50:25.343Z,1.20
2023-05-06T15:52:59.320Z,1.00
2023-05-06T15:55:26.751Z,1.40
2023-05-06T15:57:54.943Z,1.10
2023-05-06T16:00:22.305Z,1.30
2023-05-06T16:02:49.438Z,1.10
2023-05-06T16:05:16.787Z,1.10
2023-05-06T16:07:43.782Z,0.90
2023-05-06T16:10:10.908Z,1.20
2023-05-06T16:12:38.104Z,1.20
2023-05-06T16:15:05.475Z,1.10
2023-05-06T16:17:37.626Z,1.20
2023-05-06T16:20:05.544Z,1.40
2023-05-06T16:22:32.522Z,1.40
2023-05-06T16:24:59.492Z,1.30
2023-05-06T16:27:28.400Z,1.40
2023-05-06T16:29:55.802Z,1.00
2023-05-06T16:32:23.439Z,1.10
2023-05-06T16:34:50.521Z,1.30
2023-05-06T16:37:17.478Z,1.20
2023-05-06T16:39:44.420Z,1.60
2023-05-06T16:42:11.392Z,1.30
2023-05-06T16:44:38.386Z,1.30
2023-05-06T16:47:05.968Z,1.30
2023-05-06T16:49:33.936Z,1.60
2023-05-06T16:52:00.919Z,1.50
2023-05-06T16:54:27.907Z,1.10
2023-05-06T16:56:54.943Z,1.10
2023-05-06T16:59:22.557Z,1.10
2023-05-06T17:01:50.530Z,1.50
2023-05-06T17:04:17.553Z,1.30
2023-05-06T17:06:44.565Z,1.50
2023-05-06T17:09:11.592Z,1.40
2023-05-06T17:11:38.568Z,1.30
2023-05-06T17:14:05.578Z,1.20
2023-05-06T17:16:32.578Z,1.20
2023-05-06T17:18:59.565Z,1.40
2023-05-06T17:21:27.961Z,1.00
2023-05-06T17:23:55.015Z,1.00
2023-05-06T17:26:22.269Z,1.20
2023-05-06T17:28:50.993Z,1.40
2023-05-06T17:31:18.600Z,1.50
2023-05-06T17:33:45.782Z,1.20
2023-05-06T17:36:13.356Z,1.20
2023-05-06T17:38:40.314Z,1.40
2023-05-06T17:41:07.294Z,1.30
2023-05-06T17:43:34.328Z,1.70
2023-05-06T17:46:01.547Z,1.30
2023-05-06T17:48:28.663Z,1.50
2023-05-06T17:51:00.924Z,1.80
2023-05-06T17:53:28.403Z,1.80
2023-05-06T17:55:55.452Z,1.70
2023-05-06T17:58:22.386Z,1.80
2023-05-06T18:00:49.317Z,1.40
2023-05-06T18:03:16.556Z,1.90
2023-05-06T18:05:43.619Z,1.60
2023-05-06T18:08:10.671Z,1.40
2023-05-06T18:10:37.623Z,1.30
2023-05-06T18:13:04.664Z,1.60
2023-05-06T18:15:31.674Z,2.30
2023-05-06T18:17:58.656Z,1.50
2023-05-06T18:20:25.755Z,1.40
2023-05-06T18:22:52.715Z,1.50
2023-05-06T18:25:19.779Z,1.70
2023-05-06T18:27:47.529Z,1.30
2023-05-06T18:30:15.170Z,1.40
2023-05-06T18:32:42.189Z,1.80
2023-05-06T18:35:11.195Z,1.30
2023-05-06T18:37:38.672Z,1.40
2023-05-06T18:40:07.817Z,1.60
2023-05-06T18:42:35.649Z,1.20
2023-05-06T18:45:04.718Z,1.20
2023-05-06T18:47:32.354Z,1.50
2023-05-06T18:50:00.833Z,1.40
2023-05-06T18:52:27.819Z,1.30
2023-05-06T18:54:54.786Z,1.30
2023-05-06T18:57:21.917Z,1.90
2023-05-06T18:59:48.898Z,1.50
2023-05-06T19:02:15.883Z,1.40
2023-05-06T19:04:43.620Z,1.20
2023-05-06T19:07:11.288Z,1.50
2023-05-06T19:09:38.623Z,1.20
2023-05-06T19:12:05.726Z,1.10
2023-05-06T19:14:34.714Z,1.20
2023-05-06T19:17:03.506Z,1.30
2023-05-06T19:19:31.326Z,1.10
2023-05-06T19:21:59.186Z,1.10
2023-05-06T19:24:26.394Z,1.10
2023-05-06T19:26:53.364Z,1.30
2023-05-06T19:29:20.321Z,1.20
2023-05-06T19:31:47.307Z,1.30
2023-05-06T19:34:14.241Z,1.40
2023-05-06T19:36:41.310Z,1.10
2023-05-06T19:39:08.347Z,1.50
2023-05-06T19:41:35.289Z,1.40
2023-05-06T19:44:02.250Z,1.30
2023-05-06T19:46:29.222Z,1.50
2023-05-06T19:48:58.168Z,1.50
2023-05-06T19:51:25.112Z,1.40
2023-05-06T19:53:52.060Z,1.40
2023-05-06T19:56:19.814Z,1.20
2023-05-06T19:58:46.822Z,1.60
2023-05-06T20:01:13.869Z,1.50
2023-05-06T20:03:41.056Z,1.30
2023-05-06T20:06:08.141Z,1.50
2023-05-06T20:08:35.543Z,1.60
2023-05-06T20:11:02.611Z,1.30
2023-05-06T20:13:29.627Z,1.20
2023-05-06T20:15:57.504Z,1.10
2023-05-06T20:18:25.304Z,1.40
2023-05-06T20:20:52.280Z,1.60
2023-05-06T20:23:19.230Z,1.60
2023-05-06T20:25:46.298Z,1.30
2023-05-06T20:28:13.450Z,2.10
2023-05-06T20:30:40.528Z,1.50
2023-05-06T20:33:08.022Z,1.60
2023-05-06T20:35:38.542Z,1.50
2023-05-06T20:38:06.240Z,1.60
2023-05-06T20:40:34.202Z,1.90
2023-05-06T20:43:01.258Z,1.50
2023-05-06T20:45:28.433Z,1.60
2023-05-06T20:47:55.532Z,1.50
2023-05-06T20:50:22.487Z,1.20
2023-05-06T20:52:49.537Z,1.70
2023-05-06T20:55:16.625Z,1.20
2023-05-06T20:57:44.097Z,1.30
2023-05-06T21:00:11.625Z,1.00
2023-05-06T21:02:41.396Z,1.50
2023-05-06T21:05:09.306Z,1.40
2023-05-06T21:07:36.477Z,1.20
2023-05-06T21:10:05.982Z,1.30
2023-05-06T21:12:33.618Z,1.30
2023-05-06T21:15:00.870Z,1.10
2023-05-06T21:17:28.491Z,1.80
2023-05-06T21:19:55.562Z,1.20
2023-05-06T21:22:25.863Z,2.10
2023-05-06T21:24:52.898Z,1.40
2023-05-06T21:27:19.858Z,1.10
2023-05-06T21:29:46.797Z,1.10
2023-05-06T21:32:13.857Z,1.20
2023-05-06T21:34:40.869Z,1.00
2023-05-06T21:37:07.887Z,1.20
2023-05-06T21:39:34.873Z,1.00
2023-05-06T21:42:02.143Z,1.60
2023-05-06T21:44:29.117Z,1.40
2023-05-06T21:46:56.320Z,0.90
2023-05-06T21:49:23.493Z,1.10
2023-05-06T21:51:50.429Z,1.40
2023-05-06T21:54:17.514Z,1.30
2023-05-06T21:56:44.813Z,1.20
2023-05-06T21:59:11.835Z,2.00
2023-05-06T22:01:39.020Z,1.20
2023-05-06T22:04:11.497Z,1.00
2023-05-06T22:06:39.489Z,1.10
2023-05-06T22:09:09.799Z,1.20
2023-05-06T22:11:38.540Z,1.20
2023-05-06T22:14:06.908Z,1.20
2023-05-06T22:16:35.570Z,1.20
2023-05-06T22:19:04.136Z,1.10
2023-05-06T22:21:33.038Z,1.30
2023-05-06T22:24:00.083Z,0.90
2023-05-06T22:26:29.949Z,1.10
2023-05-06T22:28:56.929Z,1.00
2023-05-06T22:31:24.904Z,1.20
2023-05-06T22:33:55.575Z,1.10
2023-05-06T22:36:22.753Z,1.10
2023-05-06T22:38:50.006Z,1.60
2023-05-06T22:41:17.583Z,1.30
2023-05-06T22:43:44.533Z,1.40
2023-05-06T22:46:11.508Z,1.10
2023-05-06T22:48:38.518Z,1.30
2023-05-06T22:51:05.609Z,1.50
2023-05-06T22:53:32.590Z,1.70
2023-05-06T22:55:59.707Z,1.70
2023-05-06T22:58:26.684Z,1.50
2023-05-06T23:00:53.783Z,1.80
2023-05-06T23:03:22.609Z,1.50
2023-05-06T23:05:49.774Z,1.70
2023-05-06T23:08:16.739Z,1.30
2023-05-06T23:10:44.217Z,1.50
2023-05-06T23:13:12.207Z,2.10
2023-05-06T23:15:40.094Z,2.00
2023-05-06T23:18:07.296Z,1.80
2023-05-06T23:20:34.357Z,1.80
2023-05-06T23:23:01.362Z,1.60
2023-05-06T23:25:28.329Z,1.70
2023-05-06T23:27:55.418Z,1.60
2023-05-06T23:30:22.534Z,1.70
2023-05-06T23:32:49.617Z,2.10
2023-05-06T23:35:16.722Z,1.90
2023-05-06T23:37:43.658Z,1.90
2023-05-06T23:40:12.723Z,1.80
2023-05-06T23:42:40.173Z,2.10
2023-05-06T23:45:07.706Z,1.80
2023-05-06T23:47:34.696Z,1.70
2023-05-06T23:50:01.680Z,2.00
2023-05-06T23:52:28.629Z,1.70
2023-05-06T23:54:55.725Z,2.50
2023-05-06T23:57:22.762Z,1.90
2023-05-06T23:59:49.744Z,2.20
